createdAt,value
2022-09-01T00:00:08.019Z,17.63
2022-09-01T00:02:35.762Z,17.51
2022-09-01T00:05:04.753Z,17.57
2022-09-01T00:07:32.433Z,17.51
2022-09-01T00:10:00.488Z,17.52
2022-09-01T00:12:30.116Z,17.52
2022-09-01T00:14:59.169Z,17.52
2022-09-01T00:17:27.618Z,17.47
2022-09-01T00:19:55.407Z,17.51
2022-09-01T00:22:29.506Z,17.46
2022-09-01T00:24:56.849Z,17.49
2022-09-01T00:27:27.800Z,17.06
2022-09-01T00:30:00.040Z,17.46
2022-09-01T00:32:28.497Z,17.42
2022-09-01T00:34:56.958Z,17.37
2022-09-01T00:37:24.652Z,17.38
2022-09-01T00:39:52.210Z,17.31
2022-09-01T00:42:20.059Z,17.35
2022-09-01T00:44:47.687Z,17.28
2022-09-01T00:47:16.604Z,17.34
2022-09-01T00:49:49.941Z,17.24
2022-09-01T00:52:38.765Z,17.31
2022-09-01T00:55:17.728Z,17.28
2022-09-01T00:57:46.672Z,17.26
2022-09-01T01:00:18.789Z,17.25
2022-09-01T01:02:47.969Z,17.21
2022-09-01T01:05:16.239Z,17.22
2022-09-01T01:07:47.646Z,17.21
2022-09-01T01:10:20.137Z,17.19
2022-09-01T01:12:51.902Z,17.16
2022-09-01T01:15:20.276Z,16.90
2022-09-01T01:17:47.396Z,17.12
2022-09-01T01:20:37.032Z,17.08
2022-09-01T01:23:21.385Z,17.09
2022-09-01T01:25:57.397Z,17.06
2022-09-01T01:28:30.386Z,17.05
2022-09-01T01:31:02.121Z,17.04
2022-09-01T01:33:42.819Z,17.01
2022-09-01T01:36:32.357Z,16.99
2022-09-01T01:39:15.461Z,16.96
2022-09-01T01:41:48.711Z,16.94
2022-09-01T01:44:20.882Z,16.90
2022-09-01T01:46:52.690Z,16.90
2022-09-01T01:49:24.817Z,16.90
2022-09-01T01:51:56.184Z,16.90
2022-09-01T01:54:25.883Z,16.90
2022-09-01T01:56:53.023Z,16.89
2022-09-01T01:59:20.602Z,16.86
2022-09-01T02:01:49.289Z,16.79
2022-09-01T02:04:17.993Z,16.85
2022-09-01T02:06:47.831Z,16.72
2022-09-01T02:09:18.857Z,16.65
2022-09-01T02:11:46.033Z,16.74
2022-09-01T02:14:13.691Z,16.75
2022-09-01T02:16:41.241Z,16.72
2022-09-01T02:19:12.132Z,16.67
2022-09-01T02:21:44.594Z,16.62
2022-09-01T02:24:11.943Z,16.65
2022-09-01T02:26:45.841Z,16.69
2022-09-01T02:29:22.976Z,16.67
2022-09-01T02:31:53.995Z,16.65
2022-09-01T02:34:24.146Z,16.62
2022-09-01T02:36:54.501Z,16.61
2022-09-01T02:39:29.123Z,16.45
2022-09-01T02:41:56.901Z,16.52
2022-09-01T02:44:23.975Z,16.51
2022-09-01T02:46:51.504Z,16.55
2022-09-01T02:49:28.621Z,16.49
2022-09-01T02:52:01.513Z,16.54
2022-09-01T02:54:32.635Z,16.53
2022-09-01T02:57:00.973Z,16.52
2022-09-01T02:59:30.592Z,16.50
2022-09-01T03:01:58.368Z,16.47
2022-09-01T03:04:27.289Z,16.49
2022-09-01T03:06:58.702Z,16.43
2022-09-01T03:09:25.970Z,16.49
2022-09-01T03:11:55.166Z,16.44
2022-09-01T03:14:24.305Z,16.48
2022-09-01T03:16:52.432Z,16.46
2022-09-01T03:19:20.140Z,16.45
2022-09-01T03:21:48.696Z,16.43
2022-09-01T03:24:18.436Z,16.41
2022-09-01T03:26:50.135Z,16.37
2022-09-01T03:29:19.306Z,16.37
2022-09-01T03:31:46.691Z,16.34
2022-09-01T03:34:16.400Z,16.28
2022-09-01T03:36:50.338Z,16.28
2022-09-01T03:39:19.654Z,16.29
2022-09-01T03:41:46.899Z,16.20
2022-09-01T03:44:16.296Z,16.26
2022-09-01T03:46:44.849Z,16.18
2022-09-01T03:49:15.517Z,16.25
2022-09-01T03:51:45.265Z,16.14
2022-09-01T03:54:13.220Z,16.24
2022-09-01T03:56:41.622Z,16.25
2022-09-01T03:59:16.763Z,16.15
2022-09-01T04:01:45.863Z,16.25
2022-09-01T04:04:14.887Z,16.19
2022-09-01T04:06:45.013Z,16.22
2022-09-01T04:09:12.831Z,16.21
2022-09-01T04:11:45.828Z,16.21
2022-09-01T04:14:13.724Z,16.19
2022-09-01T04:16:59.183Z,16.14
2022-09-01T04:19:27.079Z,16.10
2022-09-01T04:22:02.798Z,16.13
2022-09-01T04:24:33.210Z,16.03
2022-09-01T04:27:02.992Z,16.09
2022-09-01T04:29:31.982Z,16.11
2022-09-01T04:32:09.786Z,16.03
2022-09-01T04:34:39.822Z,16.07
2022-09-01T04:37:18.943Z,16.14
2022-09-01T04:39:55.680Z,16.09
2022-09-01T04:42:29.170Z,16.18
2022-09-01T04:44:57.696Z,16.15
2022-09-01T04:47:36.341Z,16.25
2022-09-01T04:50:13.851Z,16.52
2022-09-01T04:52:43.563Z,16.72
2022-09-01T04:55:18.262Z,16.87
2022-09-01T04:57:50.262Z,17.16
2022-09-01T05:00:37.396Z,17.30
2022-09-01T05:03:05.136Z,17.60
2022-09-01T05:05:45.235Z,17.81
2022-09-01T05:08:22.996Z,18.01
2022-09-01T05:10:55.624Z,18.17
2022-09-01T05:13:23.699Z,18.22
2022-09-01T05:16:06.515Z,18.40
2022-09-01T05:18:34.038Z,18.52
2022-09-01T05:21:09.922Z,18.60
2022-09-01T05:23:40.677Z,18.80
2022-09-01T05:26:18.538Z,18.81
2022-09-01T05:28:53.958Z,18.86
2022-09-01T05:31:22.712Z,18.80
2022-09-01T05:33:51.081Z,18.72
2022-09-01T05:36:22.983Z,18.64
2022-09-01T05:38:52.392Z,18.48
2022-09-01T05:41:21.258Z,18.48
2022-09-01T05:43:57.834Z,18.41
2022-09-01T05:46:28.230Z,18.27
2022-09-01T05:48:57.269Z,18.22
2022-09-01T05:51:45.905Z,18.11
2022-09-01T05:54:23.239Z,18.13
2022-09-01T05:56:50.901Z,17.93
2022-09-01T05:59:25.377Z,18.03
2022-09-01T06:01:54.955Z,17.78
2022-09-01T06:04:25.508Z,17.81
2022-09-01T06:07:06.593Z,17.90
2022-09-01T06:09:42.098Z,17.85
2022-09-01T06:12:17.922Z,17.84
2022-09-01T06:14:51.357Z,17.83
2022-09-01T06:17:24.956Z,17.83
2022-09-01T06:19:56.878Z,17.87
2022-09-01T06:22:28.248Z,17.92
2022-09-01T06:25:01.903Z,17.63
2022-09-01T06:27:29.720Z,17.98
2022-09-01T06:29:58.346Z,18.07
2022-09-01T06:32:27.080Z,18.11
2022-09-01T06:34:56.305Z,18.12
2022-09-01T06:37:23.394Z,18.19
2022-09-01T06:39:51.226Z,18.22
2022-09-01T06:42:19.966Z,18.34
2022-09-01T06:44:47.345Z,18.36
2022-09-01T06:47:15.602Z,18.43
2022-09-01T06:49:43.002Z,18.42
2022-09-01T06:52:11.821Z,18.57
2022-09-01T06:54:39.667Z,18.66
2022-09-01T06:59:54.473Z,18.89
2022-09-01T07:02:26.766Z,18.27
2022-09-01T07:04:54.903Z,19.06
2022-09-01T07:10:25.413Z,19.32
2022-09-01T07:13:11.830Z,19.34
2022-09-01T07:18:31.244Z,19.54
2022-09-01T07:21:06.967Z,19.63
2022-09-01T07:24:07.800Z,19.64
2022-09-01T07:26:26.489Z,19.89
2022-09-01T07:29:01.028Z,20.03
2022-09-01T07:34:42.174Z,20.25
2022-09-01T07:38:47.016Z,20.30
2022-09-01T07:43:09.539Z,20.33
2022-09-01T07:45:47.195Z,20.45
2022-09-01T07:51:35.563Z,20.44
2022-09-01T07:53:55.664Z,20.42
2022-09-01T07:56:25.189Z,20.46
2022-09-01T07:58:53.357Z,20.50
2022-09-01T08:01:27.524Z,20.52
2022-09-01T08:04:02.142Z,20.63
2022-09-01T08:06:37.870Z,20.68
2022-09-01T08:09:11.850Z,20.77
2022-09-01T08:12:01.206Z,20.87
2022-09-01T08:14:27.732Z,20.98
2022-09-01T08:17:15.809Z,21.05
2022-09-01T08:19:43.972Z,21.03
2022-09-01T08:22:11.106Z,21.12
2022-09-01T08:24:38.167Z,21.10
2022-09-01T08:27:05.186Z,21.23
2022-09-01T08:29:32.770Z,21.26
2022-09-01T08:32:00.391Z,21.28
2022-09-01T08:34:28.317Z,21.42
2022-09-01T08:36:55.329Z,21.47
2022-09-01T08:39:22.502Z,21.55
2022-09-01T08:42:02.579Z,21.62
2022-09-01T08:45:03.177Z,21.36
2022-09-01T08:47:44.348Z,21.54
2022-09-01T08:50:20.728Z,21.25
2022-09-01T08:53:10.565Z,21.03
2022-09-01T08:55:45.646Z,20.80
2022-09-01T08:58:17.857Z,20.73
2022-09-01T09:00:57.897Z,20.62
2022-09-01T09:03:59.114Z,20.55
2022-09-01T09:07:03.999Z,20.45
2022-09-01T09:09:54.004Z,20.29
2022-09-01T09:13:00.573Z,20.35
2022-09-01T09:15:47.540Z,20.35
2022-09-01T09:18:39.223Z,20.34
2022-09-01T09:21:35.096Z,20.35
2022-09-01T09:24:49.993Z,20.42
2022-09-01T09:27:30.882Z,20.60
2022-09-01T09:30:11.202Z,20.79
2022-09-01T09:35:40.409Z,20.98
2022-09-01T09:38:21.084Z,20.96
2022-09-01T09:41:18.445Z,20.92
2022-09-01T09:44:05.813Z,20.86
2022-09-01T09:46:37.959Z,20.83
2022-09-01T09:49:34.727Z,20.76
2022-09-01T09:52:09.547Z,20.81
2022-09-01T09:54:58.814Z,20.77
2022-09-01T09:57:25.853Z,20.58
2022-09-01T10:00:00.669Z,20.55
2022-09-01T10:02:39.928Z,20.50
2022-09-01T10:05:51.555Z,20.43
2022-09-01T10:08:28.450Z,20.41
2022-09-01T10:10:58.335Z,20.39
2022-09-01T10:13:33.021Z,20.39
2022-09-01T10:16:15.799Z,20.52
2022-09-01T10:18:51.910Z,20.66
2022-09-01T10:21:30.143Z,20.79
2022-09-01T10:24:30.921Z,20.89
2022-09-01T10:27:03.954Z,20.96
2022-09-01T10:29:50.825Z,20.99
2022-09-01T10:32:37.222Z,21.10
2022-09-01T10:35:47.245Z,21.15
2022-09-01T10:38:28.919Z,21.11
2022-09-01T10:41:09.119Z,21.13
2022-09-01T10:43:45.489Z,21.13
2022-09-01T10:46:25.869Z,21.16
2022-09-01T10:49:03.118Z,21.21
2022-09-01T10:51:36.250Z,21.26
2022-09-01T10:54:06.771Z,21.29
2022-09-01T10:56:52.559Z,21.32
2022-09-01T10:59:37.391Z,21.34
2022-09-01T11:02:29.542Z,21.20
2022-09-01T11:05:02.547Z,21.46
2022-09-01T11:07:59.866Z,21.56
2022-09-01T11:11:07.375Z,21.30
2022-09-01T11:13:51.999Z,21.64
2022-09-01T11:16:53.216Z,21.75
2022-09-01T11:19:45.123Z,21.84
2022-09-01T11:22:38.117Z,21.90
2022-09-01T11:25:42.262Z,21.88
2022-09-01T11:28:17.992Z,21.89
2022-09-01T11:30:55.344Z,21.91
2022-09-01T11:33:34.534Z,21.94
2022-09-01T11:36:28.632Z,21.89
2022-09-01T11:39:15.722Z,21.87
2022-09-01T11:42:14.739Z,21.86
2022-09-01T11:45:21.486Z,21.84
2022-09-01T11:48:09.711Z,21.75
2022-09-01T11:50:43.958Z,21.78
2022-09-01T11:53:14.860Z,21.78
2022-09-01T11:55:57.290Z,21.84
2022-09-01T11:58:31.965Z,21.96
2022-09-01T12:01:33.999Z,21.98
2022-09-01T12:04:38.048Z,21.94
2022-09-01T12:07:23.865Z,21.79
2022-09-01T12:09:56.803Z,21.73
2022-09-01T12:12:36.765Z,21.78
2022-09-01T12:15:28.947Z,21.76
2022-09-01T12:18:22.675Z,21.85
2022-09-01T12:20:53.482Z,21.91
2022-09-01T12:23:31.378Z,21.90
2022-09-01T12:26:11.734Z,21.93
2022-09-01T12:28:41.735Z,21.98
2022-09-01T12:31:20.544Z,21.93
2022-09-01T12:33:48.422Z,21.88
2022-09-01T12:36:31.887Z,21.76
2022-09-01T12:39:24.911Z,21.65
2022-09-01T12:42:10.797Z,21.61
2022-09-01T12:44:37.914Z,21.63
2022-09-01T12:47:31.899Z,21.71
2022-09-01T12:50:05.350Z,21.75
2022-09-01T12:52:46.234Z,21.69
2022-09-01T12:58:10.686Z,21.66
2022-09-01T13:00:58.576Z,21.76
2022-09-01T13:03:27.637Z,21.81
2022-09-01T13:05:59.370Z,21.84
2022-09-01T13:08:33.025Z,21.92
2022-09-01T13:11:14.616Z,21.94
2022-09-01T13:13:42.438Z,21.89
2022-09-01T13:16:14.179Z,21.96
2022-09-01T13:21:34.703Z,21.73
2022-09-01T13:24:07.805Z,21.64
2022-09-01T13:26:35.194Z,21.65
2022-09-01T13:29:02.686Z,21.65
2022-09-01T13:31:31.807Z,21.68
2022-09-01T13:34:23.169Z,21.82
2022-09-01T13:36:51.524Z,21.88
2022-09-01T13:39:20.357Z,21.90
2022-09-01T13:41:49.533Z,21.93
2022-09-01T13:44:18.497Z,21.97
2022-09-01T13:49:43.673Z,21.89
2022-09-01T13:52:13.050Z,21.85
2022-09-01T13:54:40.393Z,21.91
2022-09-01T13:57:07.586Z,21.92
2022-09-01T13:59:34.758Z,21.92
2022-09-01T14:02:02.550Z,21.96
2022-09-01T14:04:38.933Z,21.96
2022-09-01T14:07:06.896Z,21.88
2022-09-01T14:09:34.697Z,21.97
2022-09-01T14:12:02.727Z,21.85
2022-09-01T14:15:11.173Z,21.87
2022-09-01T14:17:17.495Z,21.84
2022-09-01T14:19:52.990Z,21.93
2022-09-01T14:22:20.670Z,21.87
2022-09-01T14:24:52.334Z,21.89
2022-09-01T14:27:20.270Z,21.92
2022-09-01T14:29:54.843Z,21.98
2022-09-01T14:32:26.965Z,21.98
2022-09-01T14:34:56.214Z,21.96
2022-09-01T14:37:24.593Z,20.84
2022-09-01T14:39:54.596Z,21.86
2022-09-01T14:42:25.878Z,21.97
2022-09-01T14:44:53.098Z,22.02
2022-09-01T14:47:24.790Z,22.04
2022-09-01T14:49:54.484Z,22.02
2022-09-01T14:52:22.228Z,22.00
2022-09-01T14:54:50.094Z,22.01
2022-09-01T14:57:37.205Z,22.01
2022-09-01T15:00:12.108Z,21.94
2022-09-01T15:02:42.767Z,22.03
2022-09-01T15:05:12.366Z,22.04
2022-09-01T15:07:47.298Z,22.05
2022-09-01T15:10:24.669Z,22.08
2022-09-01T15:12:58.732Z,22.06
2022-09-01T15:15:28.167Z,22.07
2022-09-01T15:17:56.545Z,22.08
2022-09-01T15:20:43.680Z,22.09
2022-09-01T15:23:17.309Z,22.07
2022-09-01T15:25:45.343Z,22.03
2022-09-01T15:28:13.352Z,22.01
2022-09-01T15:30:41.317Z,21.99
2022-09-01T15:33:13.372Z,21.84
2022-09-01T15:35:44.835Z,21.79
2022-09-01T15:38:17.101Z,21.91
2022-09-01T15:40:52.046Z,21.91
2022-09-01T15:43:26.331Z,21.85
2022-09-01T15:45:53.510Z,21.84
2022-09-01T15:48:20.900Z,21.83
2022-09-01T15:50:48.111Z,21.92
2022-09-01T15:53:15.263Z,21.92
2022-09-01T15:55:46.697Z,21.91
2022-09-01T15:58:18.524Z,21.85
2022-09-01T16:00:46.343Z,21.88
2022-09-01T16:03:13.832Z,21.84
2022-09-01T16:05:41.490Z,21.88
2022-09-01T16:08:10.041Z,21.90
2022-09-01T16:10:40.055Z,21.79
2022-09-01T16:13:10.801Z,21.83
2022-09-01T16:15:48.863Z,21.83
2022-09-01T16:18:41.733Z,21.72
2022-09-01T16:21:48.218Z,21.72
2022-09-01T16:24:15.542Z,21.69
2022-09-01T16:26:48.185Z,21.65
2022-09-01T16:29:44.553Z,21.66
2022-09-01T16:32:13.357Z,21.61
2022-09-01T16:34:52.539Z,21.59
2022-09-01T16:37:34.856Z,21.55
2022-09-01T16:40:25.420Z,21.48
2022-09-01T16:43:38.773Z,21.44
2022-09-01T16:46:09.896Z,21.35
2022-09-01T16:49:14.587Z,21.34
2022-09-01T16:52:30.153Z,21.32
2022-09-01T16:55:22.877Z,21.12
2022-09-01T16:58:46.186Z,21.25
2022-09-01T17:01:19.194Z,21.21
2022-09-01T17:04:07.900Z,21.18
2022-09-01T17:06:57.225Z,21.14
2022-09-01T17:09:35.682Z,21.08
2022-09-01T17:12:41.256Z,21.04
2022-09-01T17:15:14.873Z,20.91
2022-09-01T17:18:05.924Z,20.93
2022-09-01T17:20:40.169Z,20.90
2022-09-01T17:23:15.532Z,20.83
2022-09-01T17:26:01.651Z,20.75
2022-09-01T17:28:45.191Z,20.70
2022-09-01T17:31:22.714Z,20.57
2022-09-01T17:34:07.747Z,20.53
2022-09-01T17:36:49.376Z,20.52
2022-09-01T17:39:45.907Z,20.46
2022-09-01T17:42:38.284Z,20.39
2022-09-01T17:45:13.148Z,20.32
2022-09-01T17:48:08.935Z,20.26
2022-09-01T17:50:59.533Z,20.19
2022-09-01T17:53:42.743Z,20.14
2022-09-01T17:56:36.013Z,20.08
2022-09-01T17:59:06.330Z,20.03
2022-09-01T18:02:09.975Z,19.91
2022-09-01T18:05:13.090Z,19.94
2022-09-01T18:08:11.508Z,19.78
2022-09-01T18:10:47.463Z,19.80
2022-09-01T18:13:58.913Z,19.57
2022-09-01T18:16:31.848Z,19.62
2022-09-01T18:19:12.519Z,19.64
2022-09-01T18:21:54.847Z,19.51
2022-09-01T18:24:41.972Z,19.64
2022-09-01T18:27:09.471Z,19.58
2022-09-01T18:29:36.568Z,19.42
2022-09-01T18:32:25.437Z,19.51
2022-09-01T18:35:23.198Z,19.46
2022-09-01T18:38:31.456Z,19.44
2022-09-01T18:41:22.696Z,19.39
2022-09-01T18:44:36.952Z,19.36
2022-09-01T18:47:11.494Z,19.32
2022-09-01T18:50:18.557Z,19.29
2022-09-01T18:53:27.066Z,17.71
2022-09-01T18:56:31.453Z,19.19
2022-09-01T18:59:37.085Z,19.15
2022-09-01T19:02:31.850Z,19.11
2022-09-01T19:05:16.669Z,19.05
2022-09-01T19:08:17.317Z,18.88
2022-09-01T19:11:11.719Z,18.84
2022-09-01T19:13:44.933Z,18.93
2022-09-01T19:16:36.688Z,18.90
2022-09-01T19:19:12.413Z,18.85
2022-09-01T19:21:39.855Z,18.63
2022-09-01T19:24:35.571Z,18.80
2022-09-01T19:27:28.287Z,18.75
2022-09-01T19:30:04.533Z,18.73
2022-09-01T19:32:36.248Z,18.65
2022-09-01T19:35:14.545Z,18.69
2022-09-01T19:37:44.398Z,18.65
2022-09-01T19:40:13.123Z,18.64
2022-09-01T19:43:10.014Z,18.61
2022-09-01T19:46:28.497Z,18.58
2022-09-01T19:49:23.219Z,18.53
2022-09-01T19:52:09.036Z,18.49
2022-09-01T19:54:52.899Z,18.41
2022-09-01T19:57:32.499Z,18.45
2022-09-01T20:00:27.216Z,18.38
2022-09-01T20:03:20.510Z,18.41
2022-09-01T20:06:01.602Z,18.39
2022-09-01T20:08:48.018Z,18.37
2022-09-01T20:11:40.082Z,18.36
2022-09-01T20:14:44.047Z,18.34
2022-09-01T20:17:34.915Z,18.31
2022-09-01T20:20:21.761Z,18.30
2022-09-01T20:23:00.526Z,18.28
2022-09-01T20:25:42.071Z,18.24
2022-09-01T20:28:39.284Z,18.21
2022-09-01T20:31:27.998Z,18.12
2022-09-01T20:34:09.589Z,18.06
2022-09-01T20:36:50.438Z,18.03
2022-09-01T20:40:01.310Z,18.08
2022-09-01T20:42:48.438Z,18.08
2022-09-01T20:45:28.057Z,18.05
2022-09-01T20:48:04.596Z,18.03
2022-09-01T20:50:48.966Z,18.01
2022-09-01T20:53:15.862Z,17.99
2022-09-01T20:56:29.680Z,17.99
2022-09-01T20:59:22.187Z,17.97
2022-09-01T21:02:23.098Z,17.95
2022-09-01T21:05:14.987Z,17.86
2022-09-01T21:07:49.994Z,17.92
2022-09-01T21:10:54.203Z,17.91
2022-09-01T21:13:54.557Z,17.84
2022-09-01T21:16:45.807Z,17.87
2022-09-01T21:19:35.407Z,17.77
2022-09-01T21:22:07.501Z,17.83
2022-09-01T21:24:35.855Z,17.82
2022-09-01T21:27:08.008Z,17.80
2022-09-01T21:29:58.182Z,17.76
2022-09-01T21:32:29.008Z,17.79
2022-09-01T21:34:57.702Z,17.72
2022-09-01T21:37:27.575Z,17.77
2022-09-01T21:39:56.059Z,17.77
2022-09-01T21:42:40.168Z,17.75
2022-09-01T21:45:12.777Z,17.75
2022-09-01T21:47:42.786Z,17.72
2022-09-01T21:50:11.511Z,17.70
2022-09-01T21:52:38.816Z,17.68
2022-09-01T21:55:08.267Z,17.60
2022-09-01T21:57:36.538Z,17.62
2022-09-01T22:00:18.088Z,17.55
2022-09-01T22:02:46.247Z,17.56
2022-09-01T22:05:14.689Z,17.60
2022-09-01T22:07:45.398Z,17.59
2022-09-01T22:10:21.137Z,17.55
2022-09-01T22:12:50.214Z,17.54
2022-09-01T22:15:22.378Z,17.47
2022-09-01T22:17:56.828Z,17.53
2022-09-01T22:20:28.458Z,17.45
2022-09-01T22:22:57.882Z,17.48
2022-09-01T22:25:25.549Z,17.47
2022-09-01T22:27:52.616Z,17.45
2022-09-01T22:30:19.619Z,17.43
2022-09-01T22:32:47.947Z,17.41
2022-09-01T22:35:18.318Z,17.39
2022-09-01T22:37:46.375Z,17.37
2022-09-01T22:40:15.581Z,17.34
2022-09-01T22:42:43.972Z,17.30
2022-09-01T22:45:13.183Z,17.28
2022-09-01T22:47:40.769Z,17.25
2022-09-01T22:50:10.165Z,17.23
2022-09-01T22:52:38.350Z,17.16
2022-09-01T22:55:08.985Z,17.16
2022-09-01T22:57:38.930Z,17.15
2022-09-01T23:00:10.219Z,17.12
2022-09-01T23:02:37.521Z,17.06
2022-09-01T23:05:06.072Z,17.10
2022-09-01T23:07:39.494Z,17.05
2022-09-01T23:10:08.908Z,17.00
2022-09-01T23:12:36.216Z,17.02
2022-09-01T23:15:04.331Z,16.99
2022-09-01T23:17:31.846Z,17.02
2022-09-01T23:20:02.261Z,17.03
2022-09-01T23:22:29.331Z,16.98
2022-09-01T23:24:56.302Z,16.98
2022-09-01T23:27:23.422Z,16.95
2022-09-01T23:29:51.286Z,16.93
2022-09-01T23:32:18.312Z,16.87
2022-09-01T23:34:45.450Z,16.91
2022-09-01T23:37:13.443Z,16.83
2022-09-01T23:39:40.663Z,16.86
2022-09-01T23:42:08.075Z,16.83
2022-09-01T23:44:36.899Z,16.81
2022-09-01T23:47:04.721Z,16.82
2022-09-01T23:49:32.164Z,16.77
2022-09-01T23:51:59.597Z,16.79
2022-09-01T23:54:26.816Z,16.78
2022-09-01T23:56:54.355Z,16.76
2022-09-01T23:59:27.210Z,16.69
